Terminal Aerodrome Forecast
Issued by NWS Boston, MA

Home | Current Version | Previous Version | Text Only | Print | Product List | Glossary On
Versions: 1 2 3 4 5 6 7 8 9 10 11 12 13 14 15 16 17 18 19 20 21 22 23 24 25 26 27 28 29 30 31 32 33 34 35 36 37 38 39 40 41 42 43 44
000
FTUS41 KBOX 260402 AAB
TAFBOS
TAF AMD
KBOS 260402Z 2604/2706 09005KT 3SM BR VCSH BKN004 OVC010
      WS020/18040KT
     FM260600 14005KT 3/4SM BR VCSH OVC003
     FM260800 18005KT 1/2SM FG OVC003
     FM261300 23009KT P6SM BKN008
     FM261600 25012KT P6SM BKN040
     FM262300 27014G24KT P6SM FEW200
     FM270200 26010KT P6SM FEW250=

USA.gov is the U.S. government's official web portal to all federal, state and local government web resources and services.